PWSweather.com
Personal Weather Stations
Station Observations
PHMDWX
Perry Hall, MD 21236

Perry Hall, MD 21236

Lat: 39.418318, Lon: -76.490039

Elevation: 305

Station Type: Davis Vantage Pro

Latest ConditionsUpdated 9:30:03 PM EDT Friday, Jul 29, 2016
Currently Today's Max Today's Min Today's Average
Temperature 77.6°F25.3°C 89.0°F31.7°C 69.6°F20.9°C 78.1°F25.6°C
Dew Point 73.8°F23.2°C 74.2°F23.4°C 69.3°F20.7°C 71.7°F22.1°C
Winds Calm Calm 6.4 mph W10.3 kmh W - 0.9 mph 1.4 kmh
Wind Gusts -- 11.0 mph17.7 kmh - -
Humidity 88% 99% 57% 83%
Pressure 29.87 in1011.5 mb 29.87 in1011.5 mb 29.75 in1007.5 mb -
Precipitation - 1.03 in26.2 mm - -
Hour Temp Dew Point Humidity Winds Wind Gusts Pressure Precip Precip Rate Daily Precip Total
09:30 PM 77.6°F25.3°C 73.8°F23.2°C 88% Calm Calm -- 29.87 in1011.5 mb - 0.00 in0.0 mm 1.03 in26.2 mm
09:00 PM 79.5°F26.4°C 74.2°F23.4°C 84% Calm Calm -- 29.86 in1011.2 mb - 0.00 in0.0 mm 1.03 in26.2 mm
08:30 PM 82.2°F27.9°C 71.9°F22.2°C 71% Calm Calm -- 29.86 in1011.2 mb - 0.00 in0.0 mm 1.03 in26.2 mm
08:00 PM 83.6°F28.7°C 72.3°F22.4°C 69% 0.1 mph SSE0.2 kmh SSE -- 29.85 in1010.8 mb - 0.00 in0.0 mm 1.03 in26.2 mm
07:30 PM 84.5°F29.2°C 72.3°F22.4°C 67% 2.1 mph SSE3.4 kmh SSE 5.0 mph8.0 kmh 29.84 in1010.5 mb - 0.00 in0.0 mm 1.03 in26.2 mm
07:00 PM 85.7°F29.8°C 71.7°F22.1°C 63% Calm Calm -- 29.83 in1010.2 mb - 0.00 in0.0 mm 1.03 in26.2 mm
06:30 PM 88.0°F31.1°C 71.9°F22.2°C 59% 0.6 mph NE1.0 kmh NE 1.0 mph1.6 kmh 29.83 in1010.2 mb - 0.00 in0.0 mm 1.03 in26.2 mm
06:00 PM 88.0°F31.1°C 72.4°F22.4°C 60% 0.1 mph NE0.2 kmh NE -- 29.83 in1010.2 mb - 0.00 in0.0 mm 1.03 in26.2 mm
05:30 PM 87.4°F30.8°C 71.8°F22.1°C 60% 1.6 mph ENE2.6 kmh ENE 2.0 mph3.2 kmh 29.82 in1009.8 mb - 0.00 in0.0 mm 1.03 in26.2 mm
05:00 PM 89.0°F31.7°C 72.8°F22.7°C 59% 0.2 mph NNE0.3 kmh NNE 2.0 mph3.2 kmh 29.82 in1009.8 mb - 0.00 in0.0 mm 1.03 in26.2 mm
04:30 PM 88.6°F31.4°C 71.4°F21.9°C 57% Calm Calm 1.0 mph1.6 kmh 29.82 in1009.8 mb - 0.00 in0.0 mm 1.03 in26.2 mm
04:00 PM 88.8°F31.6°C 72.1°F22.3°C 58% 1.4 mph NNE2.3 kmh NNE 2.0 mph3.2 kmh 29.81 in1009.5 mb - 0.00 in0.0 mm 1.03 in26.2 mm
03:30 PM 87.4°F30.8°C 72.3°F22.4°C 61% 4.5 mph NW7.2 kmh NW 6.0 mph9.7 kmh 29.82 in1009.8 mb - 0.00 in0.0 mm 1.03 in26.2 mm
03:00 PM 85.7°F29.8°C 70.2°F21.2°C 60% 0.7 mph NNE1.1 kmh NNE 1.0 mph1.6 kmh 29.82 in1009.8 mb - 0.00 in0.0 mm 1.03 in26.2 mm
02:30 PM 86.3°F30.2°C 73.1°F22.8°C 65% 1.0 mph NW1.6 kmh NW 5.0 mph8.0 kmh 29.81 in1009.5 mb - 0.00 in0.0 mm 1.03 in26.2 mm
02:00 PM 85.7°F29.8°C 72.6°F22.6°C 65% 0.2 mph NE0.3 kmh NE 2.0 mph3.2 kmh 29.81 in1009.5 mb - 0.00 in0.0 mm 1.03 in26.2 mm
01:30 PM 84.1°F28.9°C 71.5°F21.9°C 66% 1.2 mph NE1.9 kmh NE 2.0 mph3.2 kmh 29.81 in1009.5 mb - 0.00 in0.0 mm 1.03 in26.2 mm
01:00 PM 84.1°F28.9°C 72.0°F22.2°C 67% 1.9 mph NNW3.1 kmh NNW 5.0 mph8.0 kmh 29.81 in1009.5 mb - 0.00 in0.0 mm 1.03 in26.2 mm
12:30 PM 82.0°F27.8°C 70.4°F21.3°C 68% 0.1 mph WSW0.2 kmh WSW 1.0 mph1.6 kmh 29.82 in1009.8 mb - 0.00 in0.0 mm 1.03 in26.2 mm
12:00 PM 81.4°F27.4°C 70.7°F21.5°C 70% 0.1 mph ENE0.2 kmh ENE 2.0 mph3.2 kmh 29.82 in1009.8 mb - 0.00 in0.0 mm 1.03 in26.2 mm
11:30 AM 79.2°F26.2°C 69.8°F21.0°C 73% 2.6 mph WSW4.2 kmh WSW 7.0 mph11.3 kmh 29.82 in1009.8 mb - 0.00 in0.0 mm 1.03 in26.2 mm
11:00 AM 77.6°F25.3°C 70.9°F21.6°C 80% 1.9 mph ENE3.1 kmh ENE 2.0 mph3.2 kmh 29.83 in1010.2 mb - 0.00 in0.0 mm 1.03 in26.2 mm
10:30 AM 75.0°F23.9°C 72.2°F22.3°C 91% 2.4 mph NNW3.9 kmh NNW 2.0 mph3.2 kmh 29.82 in1009.8 mb - 0.00 in0.0 mm 1.03 in26.2 mm
10:00 AM 73.5°F23.1°C 73.2°F22.9°C 99% 1.4 mph WSW2.3 kmh WSW 6.0 mph9.7 kmh 29.82 in1009.8 mb - 0.00 in0.0 mm 1.03 in26.2 mm
09:30 AM 72.3°F22.4°C 72.0°F22.2°C 99% 2.0 mph NNW3.2 kmh NNW 5.0 mph8.0 kmh 29.82 in1009.8 mb - 0.00 in0.0 mm 1.03 in26.2 mm
09:00 AM 72.0°F22.2°C 71.7°F22.1°C 99% 0.7 mph NNE1.1 kmh NNE 2.0 mph3.2 kmh 29.82 in1009.8 mb - 0.00 in0.0 mm 1.03 in26.2 mm
08:30 AM 71.3°F21.8°C 71.0°F21.7°C 99% 0.4 mph W0.6 kmh W 2.0 mph3.2 kmh 29.82 in1009.8 mb - 0.00 in0.0 mm 1.03 in26.2 mm
08:00 AM 70.4°F21.3°C 70.1°F21.2°C 99% 0.9 mph N1.4 kmh N 2.0 mph3.2 kmh 29.82 in1009.8 mb - 0.00 in0.0 mm 1.03 in26.2 mm
07:30 AM 69.6°F20.9°C 69.3°F20.7°C 99% 1.1 mph WSW1.8 kmh WSW 2.0 mph3.2 kmh 29.82 in1009.8 mb - 0.04 in1.0 mm 1.03 in26.2 mm
07:00 AM 69.8°F21.0°C 69.5°F20.8°C 99% 0.6 mph W1.0 kmh W 1.0 mph1.6 kmh 29.81 in1009.5 mb - 0.00 in0.0 mm 0.99 in25.1 mm
06:30 AM 69.8°F21.0°C 69.5°F20.8°C 99% Calm Calm -- 29.80 in1009.1 mb - 0.01 in0.3 mm 0.99 in25.1 mm
06:00 AM 69.8°F21.0°C 69.5°F20.8°C 99% 0.1 mph W0.2 kmh W -- 29.79 in1008.8 mb - 0.02 in0.5 mm 0.98 in24.9 mm
05:30 AM 69.9°F21.1°C 69.6°F20.9°C 99% 0.5 mph W0.8 kmh W 1.0 mph1.6 kmh 29.77 in1008.1 mb - 0.06 in1.5 mm 0.96 in24.4 mm
05:00 AM 70.7°F21.5°C 70.4°F21.3°C 99% 0.3 mph NW0.5 kmh NW -- 29.75 in1007.5 mb - 0.26 in6.6 mm 0.90 in22.9 mm
04:30 AM 71.3°F21.8°C 71.0°F21.7°C 99% Calm Calm 3.0 mph4.8 kmh 29.75 in1007.5 mb - 0.48 in12.2 mm 0.64 in16.3 mm
04:00 AM 72.5°F22.5°C 72.2°F22.3°C 99% 6.4 mph W10.3 kmh W 11.0 mph17.7 kmh 29.75 in1007.5 mb - 0.05 in1.3 mm 0.18 in4.6 mm
03:30 AM 72.7°F22.6°C 72.4°F22.4°C 99% 4.0 mph NE6.4 kmh NE 6.0 mph9.7 kmh 29.75 in1007.5 mb - 0.04 in1.0 mm 0.13 in3.3 mm
03:00 AM 72.8°F22.7°C 72.5°F22.5°C 99% Calm Calm -- 29.77 in1008.1 mb - 0.00 in0.0 mm 0.09 in2.3 mm
02:30 AM 73.0°F22.8°C 72.7°F22.6°C 99% 0.6 mph NE1.0 kmh NE 3.0 mph4.8 kmh 29.78 in1008.5 mb - 0.01 in0.3 mm 0.09 in2.3 mm
02:00 AM 73.0°F22.8°C 72.7°F22.6°C 99% Calm Calm -- 29.79 in1008.8 mb - 0.00 in0.0 mm 0.08 in2.0 mm
01:30 AM 73.0°F22.8°C 72.7°F22.6°C 99% Calm Calm -- 29.79 in1008.8 mb - 0.02 in0.5 mm 0.08 in2.0 mm
01:00 AM 73.0°F22.8°C 72.7°F22.6°C 99% Calm Calm -- 29.81 in1009.5 mb - 0.03 in0.8 mm 0.06 in1.5 mm
12:30 AM 73.2°F22.9°C 72.9°F22.7°C 99% Calm Calm -- 29.82 in1009.8 mb - 0.03 in0.8 mm 0.03 in0.8 mm
12:00 AM 73.0°F22.8°C 72.7°F22.6°C 99% Calm Calm -- 29.80 in1009.1 mb - 0.00 in0.0 mm 0.00 in0.0 mm